Stuart Witham Field Airport

About
Name: Stuart Witham Field Airport
Identifier:  SUA/KSUA
Serves:  Stuart, Florida
Owner:  Martin County Board of Commissioners
Operator:  Michael C. Moon
Public/Private:  Public use
Local Time:  18. Sep 22:05 EDT
Description: Coordinates: 27°10′54.10″N 080°13′15.90″W / 27.1816944°N 80.2210833°W / 27.1816944; -80.2210833
Source: Wikipedia
Location
Runways
Identifier Length (m/ft) Surface
7/25 4,652/4,652 Asphalt
12/30 5,828/5,828 Asphalt
16/34 4,998/4,998 Asphalt
Statistics
Flights per Day:
0 flights
Distance: 229km (142mi)
Flights delayed:
0% (0 flights per day delayed)
Delay Average: 89 minutes
Current Weather
 28 C (Humidity: 69%)
  5kt (9km/h / 5mph) from 90°
  Scattered clouds at 2,000 feet (609 meter)
  11km (7 mi.)
 In the Vicinity: Showers
 METAR KSUA 190047Z 09005KT 7SM VCSH SCT020 28/22 A2996

Current Delays

Departures
N/A
Arrivals
N/A

Destinations

Top Destinations
Airport Flights
per week
Seats
per week
  Tampa (VDF) 0 - 0 0

Airlines & Planes

Top Airlines
Airline Flights
per Day
Seats
per Day
  Centennial Airlines 0 -
Top Plane Types
Model Flights Seats
Pilatus PC-12 0.0/day - 0